Pagrindinis puslapis
METAR-TAF:

METAR-TAF

Oro uostai :

Vamdrup

Koldingas, Danija

platuma: 55-26N, ilguma: 009-20E, Aukštis: 44 m

Dabartinis oras

Ataskaita buvo paskelbta 37 minutes, ne 08:20 UTC
Vėjas 5 kt iš Pietų
Temperatūra -1°C
Drėgmė 93%
Slėgis 1010 hPa
Matomumas: 8000 m
Su prošvaistėmis ne aukštis 1000 ft

METAR: EKVD 100820Z 18005KT 8000 BKN010 M01/M02 Q1010

Laikas: 09:57 (08:57 UTC)

Prognozė

Ataskaita buvo paskelbta 20 valandos ir 56 minutes, ne 12:01 UTC
Prognozė galioja nuo 09 metu 12 UTC su 09 metu 17 UTC
Vėjas 8 kt iš Pietų/Pietvakarių
Matomumas: 6000 m
Išsisklaidę debesys ne aukštis 300 ft
Su prošvaistėmis ne aukštis 1000 ft
Laikinai
nuo 09 metu 12 UTC su 09 metu 17 UTC
Matomumas: 1200 m
Su prošvaistėmis ne aukštis 200 ft
rūkana

TAF: EKVD 091201Z 0912/0917 20008KT 6000 SCT003 BKN010 TEMPO 0912/0917 1200 BR BKN002

Orai ataskaitas ir orų prognozės (METAR, TAF).

turimą stotys yra geltonos ir raudonos taškus žemėlapyje.

Perkelti pele per norėdami pamatyti stoties vardą.

Tada spustelėkite, norėdami matyti oro stebėjimo ir prognozės.

Norėdami pakeisti žemėlapį: spustelėkite ant žalios mygtukų su juodo kryžiaus žemyn,; žalią mygtuką su brūkšneliu, jei norite nutolinti; arba žalių rodyklių gretimoms žemėlapius.


METAR-TAF: